Decoded Metar for LFMD (CANNES in FRANCE) (IATA:CEQ) | Meteo·Mobile Aviation Weather
aviador You're here:

LFMD Decoded Metar

CANNES in FRANCE
Report Time2018-12-16 16:30:00
UTC Time2018-12-16 17:01:54
Flight Rules mvfr MVFR
WindVRB at 01 kt
Visibility6000 m
Phenomena:Rain
Clouds:Overcast 019 Hf
Expected CloudBase > 400 ft AGL from Temp-Dew spread
Ceiling1,900 ft
Temp09°C (ISA -6)
Dew Point08°C (94% RH)
AAT8.2°C
QNH1013 hPa
Density Alt-538 ft
Elevation30 ft
Report Wrong Elevation
Raw Report
LFMD 161630Z AUTO VRB01KT 6000 -RA OVC019 09/08 Q1013 TEMPO RA
BKN014=

Extra information for LFMD:More info

Metar Taf Metar & Taf Last 4 Metars F.Rules Stats Wind Profile Meteogram Temp Stats Airport Information Weather charts Add Link Nearby VenuesMetar ALERT Operation Metar Decoded Social comments